Time;durP1;ratioP1;P1;durP2;ratioP2;P2;SDS_P1;SDS_P2;PMS_P1;PMS_P2;Temp;Humidity;BMP_temperature;BMP_pressure;BME280_temperature;BME280_humidity;BME280_pressure;Samples;Min_cycle;Max_cycle;Signal;HPM_P1;HPM_P2
2023/01/05 00:01:26;;;;;;;17.45;1.73;;;10.70;99.90;;;;;;5038013;28;20052;-86
2023/01/05 00:03:52;;;;;;;18.83;2.65;;;;;;;;;;5038565;28;20025;-86
2023/01/05 00:06:18;;;;;;;18.40;1.38;;;10.70;99.90;;;;;;5038811;28;20613;-86
2023/01/05 00:08:44;;;;;;;29.63;3.10;;;10.70;99.90;;;;;;5038479;28;20168;-85
2023/01/05 00:22:30;;;;;;;12.20;1.30;;;10.80;99.90;;;;;;5039338;28;20040;-85
2023/01/05 00:25:14;;;;;;;19.60;1.70;;;10.70;99.90;;;;;;5037696;28;20021;-86
2023/01/05 00:27:41;;;;;;;21.55;2.00;;;10.70;99.90;;;;;;5035278;28;20060;-87
2023/01/05 00:30:14;;;;;;;14.95;1.88;;;10.70;99.90;;;;;;5035746;28;20026;-86
2023/01/05 00:32:41;;;;;;;15.27;2.00;;;10.70;99.90;;;;;;5036408;28;20040;-86
2023/01/05 00:35:08;;;;;;;23.52;2.67;;;11.40;99.90;;;;;;5037130;28;20030;-85
2023/01/05 00:37:36;;;;;;;15.40;2.00;;;10.80;99.90;;;;;;5035430;28;20036;-87
2023/01/05 00:40:03;;;;;;;20.90;2.00;;;;;;;;;;5036427;28;20025;-87
2023/01/05 00:42:28;;;;;;;18.33;1.20;;;10.60;99.90;;;;;;5036440;28;20030;-86
2023/01/05 00:44:54;;;;;;;25.10;2.70;;;10.60;99.90;;;;;;5036276;28;20044;-87
2023/01/05 00:47:20;;;;;;;15.02;1.63;;;;;;;;;;5034826;28;20045;-87
2023/01/05 00:49:47;;;;;;;16.48;2.45;;;10.60;99.90;;;;;;5018315;28;20104;-88
2023/01/05 00:52:15;;;;;;;19.63;1.38;;;13.70;99.90;;;;;;5035174;28;20021;-87
2023/01/05 00:54:42;;;;;;;16.35;2.42;;;10.70;99.90;;;;;;5034610;28;20053;-87
2023/01/05 00:57:10;;;;;;;20.23;1.83;;;10.70;99.90;;;;;;5034363;28;20052;-87
2023/01/05 00:59:36;;;;;;;14.02;1.05;;;13.80;99.90;;;;;;5034669;28;20021;-88
2023/01/05 01:02:02;;;;;;;29.42;3.45;;;10.70;99.90;;;;;;5034825;28;20075;-86
2023/01/05 01:04:30;;;;;;;17.60;1.27;;;10.80;99.90;;;;;;5034181;28;20060;-85
2023/01/05 01:06:56;;;;;;;13.75;0.70;;;12.60;99.90;;;;;;5033255;28;20036;-87
2023/01/05 01:09:21;;;;;;;14.52;1.23;;;11.70;99.90;;;;;;5033588;28;20382;-86
2023/01/05 01:11:47;;;;;;;22.48;1.45;;;13.60;99.90;;;;;;5034348;28;20033;-86
2023/01/05 01:14:12;;;;;;;19.73;1.45;;;10.80;99.90;;;;;;5033292;28;20013;-87
2023/01/05 01:16:40;;;;;;;20.92;1.23;;;11.70;99.90;;;;;;5034632;28;20022;-88
2023/01/05 01:19:06;;;;;;;16.00;2.35;;;12.10;99.90;;;;;;5034095;28;20022;-88
2023/01/05 01:21:32;;;;;;;14.25;1.45;;;13.30;99.90;;;;;;5035042;28;20083;-88
2023/01/05 01:23:57;;;;;;;15.23;1.67;;;10.60;99.90;;;;;;5033417;28;20032;-86
2023/01/05 01:26:23;;;;;;;14.98;1.10;;;10.70;99.90;;;;;;5032944;28;20047;-86
2023/01/05 01:28:49;;;;;;;17.63;1.10;;;13.00;99.90;;;;;;5034327;28;20025;-87
2023/01/05 01:31:14;;;;;;;18.83;1.38;;;10.80;99.90;;;;;;5037467;28;20013;-87
2023/01/05 01:33:40;;;;;;;13.80;1.70;;;10.80;99.90;;;;;;5038916;28;20483;-88
2023/01/05 01:36:07;;;;;;;16.10;1.33;;;10.80;99.90;;;;;;5037421;28;20079;-88
2023/01/05 01:38:36;;;;;;;20.75;2.03;;;;;;;;;;5039703;28;20029;-88
2023/01/05 01:41:02;;;;;;;17.92;1.48;;;10.90;99.90;;;;;;5038094;28;20030;-89
2023/01/05 01:43:57;;;;;;;17.70;0.82;;;10.80;99.90;;;;;;5037658;28;20044;-88
2023/01/05 01:46:24;;;;;;;17.88;1.67;;;10.80;99.90;;;;;;5016698;28;20084;-88
2023/01/05 01:48:59;;;;;;;25.17;1.13;;;12.90;99.90;;;;;;5039556;28;20056;-87
2023/01/05 01:51:43;;;;;;;23.08;2.47;;;10.80;99.90;;;;;;5037979;28;20045;-86
2023/01/05 01:54:12;;;;;;;20.95;2.63;;;10.90;99.90;;;;;;5037854;28;20112;-86
2023/01/05 01:56:51;;;;;;;23.70;1.98;;;13.40;99.90;;;;;;5038336;28;20025;-87
2023/01/05 01:59:17;;;;;;;27.52;2.88;;;10.90;99.90;;;;;;5038234;28;20026;-87
2023/01/05 02:01:43;;;;;;;25.73;3.60;;;10.80;99.90;;;;;;5037590;28;20561;-87
2023/01/05 02:04:09;;;;;;;19.08;1.75;;;10.90;99.90;;;;;;5037571;28;20085;-86
2023/01/05 02:06:35;;;;;;;31.65;3.20;;;10.90;99.90;;;;;;5039054;28;20382;-86
2023/01/05 02:09:02;;;;;;;21.08;2.58;;;10.90;99.90;;;;;;5037795;28;20030;-86
2023/01/05 02:11:31;;;;;;;22.65;1.48;;;;;;;;;;5036932;28;20021;-88
2023/01/05 02:14:02;;;;;;;19.10;1.60;;;10.70;99.90;;;;;;5037111;28;20029;-87
2023/01/05 02:16:46;;;;;;;20.38;2.13;;;10.80;99.90;;;;;;5037652;28;20028;-85
2023/01/05 02:20:22;;;;;;;23.20;1.95;;;10.70;99.90;;;;;;5037742;28;20035;-87
2023/01/05 02:23:25;;;;;;;23.83;1.58;;;10.70;99.90;;;;;;4942018;29;20075;-86
2023/01/05 02:26:26;;;;;;;18.45;2.45;;;10.70;99.90;;;;;;4941646;29;20158;-87
2023/01/05 02:29:21;;;;;;;19.10;1.55;;;10.70;99.90;;;;;;5037955;28;20471;-88
2023/01/05 02:32:08;;;;;;;25.13;1.38;;;10.70;99.90;;;;;;5048838;28;20475;-91
2023/01/05 02:35:06;;;;;;;23.27;2.08;;;10.70;99.90;;;;;;5038410;28;20061;-88
2023/01/05 02:37:48;;;;;;;21.92;1.02;;;10.80;99.90;;;;;;5037786;28;20076;-87
2023/01/05 02:40:23;;;;;;;14.80;1.50;;;10.80;99.90;;;;;;5037690;28;20030;-86
2023/01/05 02:42:51;;;;;;;17.20;1.65;;;10.70;99.90;;;;;;5038964;28;20057;-87
2023/01/05 02:45:17;;;;;;;18.95;1.73;;;13.30;99.90;;;;;;5036770;28;20049;-87
2023/01/05 02:47:44;;;;;;;14.25;1.27;;;10.60;99.90;;;;;;5038003;28;20017;-88
2023/01/05 02:50:18;;;;;;;17.60;2.97;;;11.30;99.90;;;;;;5036794;28;20021;-86
2023/01/05 02:52:55;;;;;;;24.33;2.13;;;14.20;99.90;;;;;;5037992;28;20488;-86
2023/01/05 02:55:31;;;;;;;18.50;1.33;;;10.80;99.90;;;;;;5041953;28;20025;-88
2023/01/05 02:58:04;;;;;;;25.02;1.50;;;10.80;99.90;;;;;;5039413;28;20188;-89
2023/01/05 03:00:37;;;;;;;15.63;0.50;;;10.80;99.90;;;;;;5036803;28;20098;-88
2023/01/05 03:03:31;;;;;;;29.75;2.58;;;14.10;99.90;;;;;;5036637;28;20107;-89
2023/01/05 03:06:12;;;;;;;15.95;2.70;;;10.80;99.90;;;;;;5024696;28;20490;-88
2023/01/05 03:08:44;;;;;;;17.88;1.63;;;10.70;99.90;;;;;;5035781;28;20037;-87
2023/01/05 03:14:06;;;;;;;16.90;1.13;;;13.20;99.90;;;;;;5039378;28;20086;-88
2023/01/05 03:16:35;;;;;;;18.38;1.65;;;10.70;99.90;;;;;;5036462;28;20394;-86
2023/01/05 03:36:05;;;;;;;22.50;1.98;;;10.40;99.90;;;;;;5037186;28;20044;-86
2023/01/05 03:38:35;;;;;;;38.28;2.22;;;10.50;99.90;;;;;;5035367;28;20028;-86
2023/01/05 03:41:04;;;;;;;18.52;1.45;;;10.50;99.90;;;;;;5034874;28;20021;-87
2023/01/05 03:43:34;;;;;;;23.45;1.45;;;10.50;99.90;;;;;;5036567;28;20025;-88
2023/01/05 03:45:59;;;;;;;26.08;2.50;;;11.60;99.90;;;;;;5034947;28;20029;-87
2023/01/05 03:48:27;;;;;;;19.30;2.05;;;10.50;99.90;;;;;;5035025;28;20434;-87
2023/01/05 03:50:53;;;;;;;17.15;1.77;;;10.60;99.90;;;;;;5035206;28;20435;-86
2023/01/05 03:53:19;;;;;;;14.27;1.75;;;10.50;99.90;;;;;;5037988;28;20017;-90
2023/01/05 03:55:44;;;;;;;18.45;2.20;;;14.40;99.90;;;;;;5041520;28;20032;-90
2023/01/05 03:58:10;;;;;;;14.63;1.17;;;13.90;99.90;;;;;;5039082;28;20025;-88
2023/01/05 04:00:36;;;;;;;18.58;1.45;;;;;;;;;;5038090;28;20036;-87
2023/01/05 04:03:02;;;;;;;32.13;2.00;;;;;;;;;;5036142;28;20402;-86
2023/01/05 04:05:28;;;;;;;32.05;2.92;;;;;;;;;;5037279;28;20569;-87
2023/01/05 04:07:54;;;;;;;18.73;1.73;;;10.70;99.90;;;;;;5036832;28;20068;-88
2023/01/05 04:10:20;;;;;;;25.85;2.10;;;10.60;99.90;;;;;;5034645;28;20104;-88
2023/01/05 04:12:48;;;;;;;22.77;1.83;;;13.30;99.90;;;;;;5034616;28;20029;-88
2023/01/05 04:15:13;;;;;;;17.77;1.77;;;11.00;99.90;;;;;;5034549;28;20022;-87
2023/01/05 04:17:39;;;;;;;16.67;1.42;;;11.50;99.90;;;;;;5034079;28;20493;-88
2023/01/05 04:20:05;;;;;;;19.65;1.52;;;10.60;99.90;;;;;;5034501;28;20018;-87
2023/01/05 04:22:31;;;;;;;19.52;2.28;;;10.60;99.90;;;;;;5035451;28;20026;-86
2023/01/05 04:24:57;;;;;;;24.23;1.42;;;12.80;99.90;;;;;;5036317;28;20493;-87
2023/01/05 04:27:23;;;;;;;12.10;1.02;;;10.70;99.90;;;;;;5034466;28;20025;-87
2023/01/05 04:29:48;;;;;;;26.30;2.20;;;13.00;99.90;;;;;;5035884;28;20101;-87
2023/01/05 04:32:14;;;;;;;21.20;1.83;;;10.70;99.90;;;;;;5035413;28;20068;-89
2023/01/05 04:34:40;;;;;;;13.18;1.10;;;12.80;99.90;;;;;;5037445;28;20029;-86
2023/01/05 04:37:05;;;;;;;15.07;0.85;;;10.70;99.90;;;;;;5036231;28;20372;-86
2023/01/05 04:39:31;;;;;;;14.00;1.05;;;10.60;99.90;;;;;;5034757;28;20071;-87
2023/01/05 04:41:57;;;;;;;21.67;2.60;;;;;;;;;;5035103;28;20033;-86
2023/01/05 04:44:22;;;;;;;14.50;1.42;;;10.60;99.90;;;;;;5034351;28;20064;-87
2023/01/05 04:46:48;;;;;;;21.08;2.58;;;11.90;99.90;;;;;;5033651;28;20032;-87
2023/01/05 04:49:14;;;;;;;19.60;1.40;;;12.70;99.90;;;;;;5035458;28;20514;-87
2023/01/05 04:51:40;;;;;;;20.23;2.35;;;;;;;;;;5033754;28;20017;-90
2023/01/05 04:54:06;;;;;;;19.83;2.10;;;10.60;99.90;;;;;;5034151;28;20029;-87
2023/01/05 04:56:32;;;;;;;17.15;2.15;;;;;;;;;;5036684;28;20034;-87
2023/01/05 04:58:57;;;;;;;26.92;2.50;;;10.60;99.90;;;;;;5034195;28;20040;-87
2023/01/05 05:01:23;;;;;;;21.20;1.73;;;10.60;99.90;;;;;;5033991;28;20410;-87
2023/01/05 05:03:48;;;;;;;25.70;2.78;;;13.90;99.90;;;;;;5032768;28;20064;-87
2023/01/05 05:06:16;;;;;;;31.92;1.65;;;14.00;99.90;;;;;;5034342;28;20029;-88
2023/01/05 05:08:42;;;;;;;20.20;1.23;;;11.30;99.90;;;;;;5033417;28;20470;-86
2023/01/05 05:11:07;;;;;;;19.55;2.25;;;10.50;99.90;;;;;;5033213;28;20030;-87
2023/01/05 05:13:33;;;;;;;19.02;1.35;;;10.50;99.90;;;;;;5033222;28;20072;-87
2023/01/05 05:15:58;;;;;;;17.73;1.13;;;10.50;99.90;;;;;;5032704;28;20479;-88
2023/01/05 05:18:24;;;;;;;25.83;2.10;;;10.50;99.90;;;;;;5033234;28;20021;-88
2023/01/05 05:20:51;;;;;;;23.13;1.60;;;10.30;99.90;;;;;;5032875;28;20029;-87
2023/01/05 05:23:17;;;;;;;19.23;2.35;;;10.30;99.90;;;;;;5032745;28;20025;-88
2023/01/05 05:25:42;;;;;;;15.57;1.75;;;13.00;99.90;;;;;;5033158;28;20087;-89
2023/01/05 05:28:08;;;;;;;21.42;1.23;;;10.30;99.90;;;;;;5032818;28;20032;-87
2023/01/05 05:30:35;;;;;;;16.80;1.73;;;13.80;99.90;;;;;;5033003;28;20018;-88
2023/01/05 05:33:01;;;;;;;28.50;2.40;;;10.20;99.90;;;;;;5032883;28;20061;-89
2023/01/05 05:35:27;;;;;;;16.35;1.20;;;11.10;99.90;;;;;;5032479;28;20029;-88
2023/01/05 05:37:52;;;;;;;18.58;1.38;;;10.30;99.90;;;;;;5032597;28;20056;-88
2023/01/05 05:40:18;;;;;;;21.60;1.67;;;10.30;99.90;;;;;;5044723;23;20050;-82
2023/01/05 05:42:43;;;;;;;19.90;1.95;;;10.30;99.90;;;;;;5035415;28;20498;-81
2023/01/05 05:45:09;;;;;;;19.65;1.92;;;10.30;99.90;;;;;;5036081;28;20029;-81
2023/01/05 05:47:35;;;;;;;25.73;1.85;;;10.30;99.90;;;;;;5036346;28;20022;-80
2023/01/05 05:50:01;;;;;;;11.65;1.58;;;10.40;99.90;;;;;;5035437;28;20018;-80
2023/01/05 05:52:26;;;;;;;25.80;2.33;;;10.60;99.90;;;;;;5035539;28;20021;-80
2023/01/05 05:54:52;;;;;;;19.27;1.75;;;10.40;99.90;;;;;;5035554;28;20018;-81
2023/01/05 05:57:17;;;;;;;13.48;0.77;;;10.70;99.90;;;;;;5035408;28;20036;-81
2023/01/05 05:59:43;;;;;;;18.92;1.73;;;10.40;99.90;;;;;;5035242;28;20459;-80
2023/01/05 06:02:09;;;;;;;16.92;2.47;;;10.30;99.90;;;;;;5035542;28;20032;-81
2023/01/05 06:04:34;;;;;;;11.18;0.90;;;10.40;99.90;;;;;;5035604;28;20083;-80
2023/01/05 06:07:00;;;;;;;22.42;2.30;;;10.50;99.90;;;;;;5035132;28;20030;-80
2023/01/05 06:09:25;;;;;;;16.38;1.50;;;10.50;99.90;;;;;;5036817;28;20100;-81
2023/01/05 06:11:51;;;;;;;24.85;1.58;;;11.10;99.90;;;;;;5035513;28;20026;-81
2023/01/05 06:14:17;;;;;;;15.90;1.58;;;11.40;99.90;;;;;;5037130;28;20025;-81
2023/01/05 06:16:44;;;;;;;22.30;0.80;;;10.50;99.90;;;;;;5039910;28;20075;-81
2023/01/05 06:19:10;;;;;;;21.38;1.88;;;10.50;99.90;;;;;;5038746;28;20013;-81
2023/01/05 06:21:35;;;;;;;20.33;2.30;;;10.50;99.90;;;;;;5040582;28;20361;-81
2023/01/05 06:24:01;;;;;;;26.10;2.95;;;11.10;99.90;;;;;;5040067;28;20105;-80
2023/01/05 06:26:26;;;;;;;26.10;3.42;;;10.60;99.90;;;;;;5038750;28;20053;-80
2023/01/05 06:28:52;;;;;;;22.55;1.40;;;10.60;99.90;;;;;;5038373;28;20495;-80
2023/01/05 06:31:17;;;;;;;19.50;1.30;;;10.60;99.90;;;;;;5039985;28;20091;-81
2023/01/05 06:33:43;;;;;;;24.70;1.65;;;10.60;99.90;;;;;;5038624;28;20029;-81
2023/01/05 06:36:08;;;;;;;24.52;2.90;;;10.60;99.90;;;;;;5038950;28;20090;-79
2023/01/05 06:38:34;;;;;;;17.90;1.77;;;10.50;99.90;;;;;;5034737;28;20110;-78
2023/01/05 06:41:00;;;;;;;25.33;2.13;;;10.50;99.90;;;;;;5036718;28;20029;-79
2023/01/05 06:43:25;;;;;;;20.45;2.50;;;10.50;99.90;;;;;;5035994;28;20036;-79
2023/01/05 06:45:51;;;;;;;18.75;2.25;;;11.90;99.90;;;;;;5035787;28;20056;-79
2023/01/05 06:48:17;;;;;;;25.50;3.28;;;10.50;99.90;;;;;;5034514;28;20017;-78
2023/01/05 06:50:43;;;;;;;13.95;1.00;;;10.90;99.90;;;;;;5034489;28;20076;-78
2023/01/05 06:53:09;;;;;;;30.60;3.78;;;10.40;99.90;;;;;;5035725;28;20053;-78
2023/01/05 06:55:34;;;;;;;28.02;4.18;;;10.40;99.90;;;;;;5036686;28;20562;-78
2023/01/05 06:58:00;;;;;;;22.70;2.10;;;10.40;99.90;;;;;;5034460;28;20021;-79
2023/01/05 07:00:25;;;;;;;16.52;1.38;;;11.60;99.90;;;;;;5034595;28;20037;-78
2023/01/05 07:02:51;;;;;;;22.48;0.63;;;10.40;99.90;;;;;;5035982;28;20113;-78
2023/01/05 07:05:17;;;;;;;18.20;1.08;;;10.50;99.90;;;;;;5034442;28;20028;-79
2023/01/05 07:07:42;;;;;;;18.80;1.73;;;10.40;99.90;;;;;;5034435;28;20451;-79
2023/01/05 07:10:08;;;;;;;15.23;1.52;;;10.40;99.90;;;;;;5035568;28;20048;-79
2023/01/05 07:12:34;;;;;;;17.67;2.78;;;10.40;99.90;;;;;;5034371;28;20021;-78
2023/01/05 07:14:59;;;;;;;18.02;1.88;;;10.40;99.90;;;;;;5034179;28;20017;-77
2023/01/05 07:17:25;;;;;;;19.02;1.30;;;11.30;99.90;;;;;;5035553;28;20028;-79
2023/01/05 07:19:51;;;;;;;28.00;1.05;;;10.20;99.90;;;;;;5035232;28;20488;-79
2023/01/05 07:22:17;;;;;;;22.75;1.17;;;10.20;99.90;;;;;;5034114;28;20077;-78
2023/01/05 07:24:42;;;;;;;18.10;2.03;;;10.80;99.90;;;;;;5035325;28;20087;-79
2023/01/05 07:27:08;;;;;;;15.00;1.63;;;10.10;99.90;;;;;;5034406;28;20032;-78
2023/01/05 07:29:34;;;;;;;17.10;2.00;;;10.10;99.90;;;;;;5035099;28;20034;-76
2023/01/05 07:32:00;;;;;;;16.95;1.98;;;10.10;99.90;;;;;;5034667;28;20064;-78
2023/01/05 07:34:25;;;;;;;16.95;1.73;;;10.20;99.90;;;;;;5034432;28;20017;-79
2023/01/05 07:36:51;;;;;;;20.45;1.52;;;10.20;99.90;;;;;;5035477;28;20014;-79
2023/01/05 07:39:16;;;;;;;16.67;2.05;;;10.20;99.90;;;;;;5035342;28;20029;-79
2023/01/05 07:41:43;;;;;;;14.88;0.82;;;10.20;99.90;;;;;;5036021;28;20052;-79
2023/01/05 07:44:08;;;;;;;25.25;3.47;;;12.20;99.90;;;;;;5034145;28;20029;-80
2023/01/05 07:46:34;;;;;;;16.75;2.30;;;10.30;99.90;;;;;;5033868;28;20026;-79
2023/01/05 07:49:00;;;;;;;28.17;1.23;;;10.30;99.90;;;;;;5035457;28;20032;-79
2023/01/05 07:51:26;;;;;;;20.45;1.50;;;10.20;99.90;;;;;;5034057;28;20028;-78
2023/01/05 07:53:52;;;;;;;14.25;1.02;;;10.20;99.90;;;;;;5034303;28;20481;-79
2023/01/05 07:56:18;;;;;;;25.17;1.75;;;10.20;99.90;;;;;;5034230;28;20496;-79
2023/01/05 07:58:43;;;;;;;17.58;0.77;;;10.20;99.90;;;;;;5033585;28;20029;-79
2023/01/05 08:01:11;;;;;;;19.60;1.77;;;10.20;99.90;;;;;;5033558;28;20025;-79
2023/01/05 08:03:37;;;;;;;16.27;1.60;;;10.20;99.90;;;;;;5034782;28;20092;-79
2023/01/05 08:06:12;;;;;;;16.80;1.38;;;10.20;99.90;;;;;;5033474;28;20076;-79
2023/01/05 08:08:38;;;;;;;23.08;1.55;;;10.80;99.90;;;;;;5033874;28;20116;-79
2023/01/05 08:11:08;;;;;;;19.48;1.95;;;10.20;99.90;;;;;;5034974;28;20045;-79
2023/01/05 08:16:19;;;;;;;21.17;1.65;;;10.10;99.90;;;;;;5035604;28;20507;-77
2023/01/05 08:18:44;;;;;;;18.92;1.52;;;10.10;99.90;;;;;;5034323;28;20017;-77
2023/01/05 08:21:10;;;;;;;23.88;1.85;;;10.10;99.90;;;;;;5035599;28;20025;-82
2023/01/05 08:23:37;;;;;;;11.77;1.58;;;10.20;99.90;;;;;;5035083;28;20029;-80
2023/01/05 08:26:11;;;;;;;21.02;1.52;;;10.20;99.90;;;;;;5036696;28;20029;-80
2023/01/05 08:28:37;;;;;;;25.00;1.60;;;10.10;99.90;;;;;;5034374;28;20036;-79
2023/01/05 08:31:05;;;;;;;23.73;3.47;;;10.10;99.90;;;;;;5035060;28;20014;-79
2023/01/05 08:33:31;;;;;;;27.02;1.48;;;10.10;99.90;;;;;;5036229;28;20468;-79
2023/01/05 08:35:57;;;;;;;20.25;2.00;;;10.10;99.90;;;;;;5035242;28;20084;-79
2023/01/05 08:38:23;;;;;;;29.77;1.38;;;10.10;99.90;;;;;;5034805;28;20037;-79
2023/01/05 08:40:49;;;;;;;22.25;2.47;;;10.20;99.90;;;;;;5034902;28;20037;-79
2023/01/05 08:43:15;;;;;;;20.13;2.40;;;10.20;99.90;;;;;;5035701;28;20499;-81
2023/01/05 08:45:41;;;;;;;35.50;1.98;;;10.20;99.90;;;;;;5033919;28;20022;-79
2023/01/05 08:48:08;;;;;;;20.17;1.92;;;10.30;99.90;;;;;;5035482;28;20105;-79
2023/01/05 08:50:33;;;;;;;19.83;1.58;;;10.30;99.90;;;;;;5037544;28;20025;-77
2023/01/05 08:52:59;;;;;;;20.05;2.50;;;10.30;99.90;;;;;;5035088;28;20021;-78
2023/01/05 08:55:24;;;;;;;17.98;3.00;;;10.30;99.90;;;;;;5034132;28;20018;-79
2023/01/05 08:57:50;;;;;;;25.02;2.65;;;10.30;99.90;;;;;;5032611;28;20029;-78
2023/01/05 09:00:16;;;;;;;23.50;1.10;;;10.30;99.90;;;;;;5034282;28;20026;-78
2023/01/05 09:02:43;;;;;;;33.25;2.95;;;10.30;99.90;;;;;;5034198;28;20405;-78
2023/01/05 09:05:08;;;;;;;17.52;2.20;;;10.30;99.90;;;;;;5034083;28;20032;-75
2023/01/05 09:07:34;;;;;;;23.70;2.50;;;10.30;99.90;;;;;;5047328;23;20041;-79
2023/01/05 09:10:00;;;;;;;21.40;1.65;;;10.30;99.90;;;;;;5042125;28;20061;-79
2023/01/05 09:12:25;;;;;;;18.48;2.35;;;10.40;99.90;;;;;;5045607;28;20021;-79
2023/01/05 09:14:53;;;;;;;23.38;2.35;;;10.40;99.90;;;;;;5043749;28;20026;-79
2023/01/05 09:17:18;;;;;;;21.08;1.50;;;10.40;99.90;;;;;;5044489;28;20034;-78
2023/01/05 09:19:44;;;;;;;21.85;1.65;;;11.40;99.90;;;;;;5041615;28;20030;-78
2023/01/05 09:22:10;;;;;;;26.52;2.28;;;10.50;99.90;;;;;;5042606;28;20084;-79
2023/01/05 09:24:35;;;;;;;22.38;2.05;;;10.50;99.90;;;;;;5046206;28;20025;-79
2023/01/05 09:27:02;;;;;;;25.60;2.22;;;10.50;99.90;;;;;;5044496;28;20380;-79
2023/01/05 09:29:28;;;;;;;25.35;1.70;;;10.60;99.90;;;;;;5045495;28;20018;-79
2023/01/05 09:31:53;;;;;;;15.13;1.13;;;10.60;99.90;;;;;;5042566;28;20028;-79
2023/01/05 09:34:19;;;;;;;19.17;1.90;;;10.70;99.90;;;;;;5042655;28;20032;-79
2023/01/05 09:36:45;;;;;;;20.00;1.23;;;11.30;99.90;;;;;;5043392;28;20056;-79
2023/01/05 09:39:11;;;;;;;18.27;1.67;;;10.70;99.90;;;;;;5044017;28;20465;-79
2023/01/05 09:41:45;;;;;;;18.95;1.95;;;10.70;99.90;;;;;;5041472;28;20033;-78
2023/01/05 09:44:32;;;;;;;17.50;2.38;;;10.70;99.90;;;;;;5042225;28;20026;-78
2023/01/05 09:47:17;;;;;;;15.23;1.33;;;10.70;99.90;;;;;;5041074;28;20484;-79
2023/01/05 09:49:44;;;;;;;16.48;1.42;;;10.70;99.90;;;;;;5044549;28;20025;-78
2023/01/05 09:52:13;;;;;;;24.20;3.53;;;10.60;99.90;;;;;;5045364;28;20028;-79
2023/01/05 09:54:39;;;;;;;17.38;1.52;;;10.70;99.90;;;;;;5045342;28;20049;-79
2023/01/05 09:57:18;;;;;;;18.45;1.70;;;10.70;99.90;;;;;;5045670;28;20025;-79
2023/01/05 09:59:50;;;;;;;17.63;1.55;;;10.80;99.90;;;;;;5044160;28;20025;-79
2023/01/05 10:02:24;;;;;;;19.50;1.65;;;10.90;99.90;;;;;;5045090;28;20076;-79
2023/01/05 10:04:51;;;;;;;15.25;1.73;;;10.90;99.90;;;;;;5044890;28;20029;-79
2023/01/05 10:07:27;;;;;;;28.08;2.10;;;10.90;99.90;;;;;;5044239;28;20033;-79
2023/01/05 10:09:55;;;;;;;26.95;3.42;;;10.90;99.90;;;;;;5046191;28;20033;-79
2023/01/05 10:15:20;;;;;;;16.70;2.17;;;11.00;99.90;;;;;;5048065;28;20044;-79
2023/01/05 10:17:46;;;;;;;;;;;10.90;99.90;;;;;;5044668;28;20536;-79
2023/01/05 10:20:24;;;;;;;15.82;1.48;;;10.90;99.90;;;;;;5048715;28;19912;-81
2023/01/05 10:23:05;;;;;;;24.52;1.77;;;10.90;99.90;;;;;;5047823;28;20037;-81
2023/01/05 10:25:44;;;;;;;12.68;1.90;;;11.10;99.90;;;;;;5047872;28;20051;-80
2023/01/05 10:28:38;;;;;;;18.38;1.48;;;11.00;99.90;;;;;;5049072;28;20026;-79
2023/01/05 10:31:20;;;;;;;19.88;2.08;;;11.00;99.90;;;;;;5048687;28;20052;-79
2023/01/05 10:34:14;;;;;;;20.05;2.63;;;11.10;99.90;;;;;;5048789;28;20048;-79
2023/01/05 10:36:52;;;;;;;20.88;1.42;;;11.10;99.90;;;;;;5001848;28;20042;-76
2023/01/05 10:39:45;;;;;;;21.58;2.47;;;11.10;99.90;;;;;;5043078;28;20021;-80
2023/01/05 10:42:27;;;;;;;15.15;1.55;;;11.00;99.90;;;;;;5038084;28;20026;-79
2023/01/05 10:44:58;;;;;;;16.20;2.08;;;11.10;99.90;;;;;;5041216;28;20034;-79
2023/01/05 10:47:26;;;;;;;30.33;1.75;;;11.10;99.90;;;;;;5046323;28;20033;-79
2023/01/05 10:49:52;;;;;;;17.30;1.02;;;11.10;99.90;;;;;;5046419;28;20018;-80
2023/01/05 10:52:20;;;;;;;15.60;2.60;;;11.10;99.90;;;;;;5048847;28;20021;-80
2023/01/05 10:54:59;;;;;;;19.75;1.45;;;11.90;99.90;;;;;;5048196;28;20013;-80
2023/01/05 10:57:27;;;;;;;17.10;0.63;;;11.20;99.90;;;;;;5046487;28;20029;-79
2023/01/05 11:00:09;;;;;;;21.10;2.05;;;11.10;99.90;;;;;;5044881;28;20028;-80
2023/01/05 11:02:45;;;;;;;20.50;1.58;;;11.30;99.90;;;;;;5044098;28;20072;-80
2023/01/05 11:05:11;;;;;;;19.52;1.13;;;11.30;99.90;;;;;;5045557;28;20025;-79
2023/01/05 11:08:14;;;;;;;14.90;1.20;;;11.40;99.90;;;;;;5043743;28;20040;-79
2023/01/05 11:11:06;;;;;;;24.45;2.30;;;11.30;99.90;;;;;;5034367;28;20045;-80
2023/01/05 11:13:35;;;;;;;15.60;1.77;;;11.40;99.90;;;;;;5028998;28;20034;-76
2023/01/05 11:16:19;;;;;;;15.00;1.33;;;11.40;99.90;;;;;;5035924;28;20061;-76
2023/01/05 11:19:00;;;;;;;25.13;2.80;;;11.40;99.90;;;;;;5033950;28;20018;-76
2023/01/05 11:21:44;;;;;;;26.02;2.33;;;11.40;99.90;;;;;;5034010;28;20121;-76
2023/01/05 11:24:31;;;;;;;15.82;1.05;;;11.50;99.90;;;;;;5035178;28;20510;-76
2023/01/05 11:27:21;;;;;;;17.10;1.13;;;11.60;99.90;;;;;;5033834;28;20061;-76
2023/01/05 11:30:15;;;;;;;17.27;2.55;;;11.70;99.90;;;;;;5035354;28;20029;-76
2023/01/05 11:32:45;;;;;;;13.43;0.57;;;11.70;99.90;;;;;;5035028;28;20032;-78
2023/01/05 11:35:21;;;;;;;19.48;1.92;;;11.80;99.90;;;;;;5035154;28;20056;-77
2023/01/05 11:37:47;;;;;;;27.50;2.92;;;11.80;99.90;;;;;;5033800;28;20055;-76
2023/01/05 11:40:16;;;;;;;25.48;2.28;;;11.90;99.90;;;;;;5034810;28;20037;-76
2023/01/05 11:42:43;;;;;;;35.75;2.72;;;11.90;99.90;;;;;;5033607;28;20075;-76
2023/01/05 11:45:19;;;;;;;21.88;3.17;;;11.90;99.90;;;;;;5035232;28;20104;-76
2023/01/05 11:47:53;;;;;;;20.77;2.03;;;11.80;99.90;;;;;;5034749;28;20022;-76
2023/01/05 11:50:20;;;;;;;24.90;2.13;;;11.80;99.90;;;;;;5034789;28;20032;-76
2023/01/05 11:52:53;;;;;;;13.02;1.23;;;11.80;99.90;;;;;;5034745;28;20018;-76
2023/01/05 11:55:21;;;;;;;19.58;1.52;;;11.90;99.90;;;;;;5034842;28;20026;-76
2023/01/05 11:57:48;;;;;;;24.35;1.50;;;11.90;99.90;;;;;;5033281;28;20045;-77
2023/01/05 12:00:23;;;;;;;22.70;1.55;;;12.10;99.90;;;;;;5034300;28;20025;-76
2023/01/05 12:03:09;;;;;;;19.63;1.45;;;12.10;99.90;;;;;;5034460;28;20029;-77
2023/01/05 12:05:58;;;;;;;15.05;1.10;;;12.10;99.90;;;;;;5034466;28;20481;-77
2023/01/05 12:08:42;;;;;;;14.98;1.02;;;12.10;99.90;;;;;;5033081;28;20036;-77
2023/01/05 12:11:16;;;;;;;24.27;2.47;;;12.00;99.90;;;;;;5034287;28;20053;-76
2023/01/05 12:14:20;;;;;;;22.98;3.03;;;12.00;99.90;;;;;;5033966;28;20476;-77
2023/01/05 12:16:48;;;;;;;22.63;1.38;;;11.90;99.90;;;;;;5034246;28;20030;-76
2023/01/05 12:19:28;;;;;;;19.97;1.60;;;11.90;99.90;;;;;;5034033;28;20036;-76
2023/01/05 12:22:17;;;;;;;16.88;1.55;;;11.80;99.90;;;;;;5033511;28;20093;-76
2023/01/05 12:25:00;;;;;;;17.20;1.70;;;11.70;99.90;;;;;;5032671;28;20053;-77
2023/01/05 12:27:44;;;;;;;19.13;2.35;;;11.60;99.90;;;;;;5034037;28;20032;-76
2023/01/05 12:30:18;;;;;;;20.70;1.35;;;11.60;99.90;;;;;;5033785;28;20026;-76
2023/01/05 12:33:21;;;;;;;19.42;0.95;;;11.60;99.90;;;;;;5033734;28;20022;-77
2023/01/05 12:35:55;;;;;;;16.90;1.23;;;11.50;99.90;;;;;;5033843;28;20033;-76
2023/01/05 12:38:47;;;;;;;17.73;1.00;;;11.60;99.90;;;;;;5033676;28;20480;-77
2023/01/05 12:41:31;;;;;;;16.17;2.22;;;11.60;99.90;;;;;;5032372;28;20088;-76
2023/01/05 12:44:26;;;;;;;14.38;0.88;;;11.70;99.90;;;;;;5033750;28;20025;-77
2023/01/05 12:47:29;;;;;;;16.95;0.57;;;11.70;99.90;;;;;;5032407;28;20029;-76
2023/01/05 12:50:04;;;;;;;27.83;1.85;;;11.70;99.90;;;;;;5033361;28;20370;-76
2023/01/05 12:52:36;;;;;;;13.20;1.23;;;11.60;99.90;;;;;;5033547;28;20108;-76
2023/01/05 12:55:19;;;;;;;14.90;2.30;;;11.60;99.90;;;;;;5033518;28;20025;-76
2023/01/05 12:57:51;;;;;;;21.05;2.05;;;11.60;99.90;;;;;;5034020;28;20083;-76
2023/01/05 13:00:20;;;;;;;16.80;1.73;;;11.60;99.90;;;;;;5032200;28;20028;-76
2023/01/05 13:02:59;;;;;;;21.50;1.02;;;11.60;99.90;;;;;;5032124;28;20025;-76
2023/01/05 13:05:49;;;;;;;23.13;1.55;;;11.60;99.90;;;;;;5032049;28;20472;-76
2023/01/05 13:08:28;;;;;;;12.00;1.23;;;11.60;99.90;;;;;;5033288;28;20025;-77
2023/01/05 13:11:02;;;;;;;18.40;1.92;;;11.60;99.90;;;;;;5033266;28;20112;-76
2023/01/05 13:13:38;;;;;;;25.23;1.65;;;11.60;99.90;;;;;;5032100;28;20032;-76
2023/01/05 13:16:23;;;;;;;19.40;1.23;;;11.70;99.90;;;;;;5032035;28;20025;-76
2023/01/05 13:19:29;;;;;;;17.58;1.55;;;11.60;99.90;;;;;;5033133;28;20030;-76
2023/01/05 13:22:01;;;;;;;15.90;1.60;;;11.60;99.90;;;;;;5022392;28;20565;-76
2023/01/05 13:24:38;;;;;;;16.63;2.22;;;11.70;99.90;;;;;;5033489;28;20496;-76
2023/01/05 13:27:03;;;;;;;15.95;1.52;;;11.80;99.90;;;;;;5036083;28;20184;-76
2023/01/05 13:29:43;;;;;;;18.25;2.00;;;11.80;99.90;;;;;;5037234;28;20065;-76
2023/01/05 13:32:15;;;;;;;23.15;1.67;;;11.80;99.90;;;;;;5036138;28;20583;-76
2023/01/05 13:34:53;;;;;;;28.38;2.50;;;11.70;99.90;;;;;;5035991;28;20025;-76
2023/01/05 13:37:41;;;;;;;20.27;1.40;;;11.70;99.90;;;;;;5037708;28;20113;-76